sensor_id;sensor_type;location;lat;lon;timestamp;pressure;altitude;pressure_sealevel;temperature;humidity
79645;BME280;69117;47.148;18.954;2023-07-09T00:02:40;101019.25;;;17.77;61.87
79645;BME280;69117;47.148;18.954;2023-07-09T00:05:42;101013.75;;;17.62;61.95
79645;BME280;69117;47.148;18.954;2023-07-09T00:08:46;101015.97;;;17.59;61.89
79645;BME280;69117;47.148;18.954;2023-07-09T00:11:49;101009.47;;;17.53;61.92
79645;BME280;69117;47.148;18.954;2023-07-09T00:14:51;101016.97;;;17.58;61.97
79645;BME280;69117;47.148;18.954;2023-07-09T00:17:53;101020.03;;;17.47;62.04
79645;BME280;69117;47.148;18.954;2023-07-09T00:20:55;101019.66;;;17.50;61.90
79645;BME280;69117;47.148;18.954;2023-07-09T00:23:56;101009.34;;;17.47;61.93
79645;BME280;69117;47.148;18.954;2023-07-09T00:26:58;101022.38;;;17.42;61.83
79645;BME280;69117;47.148;18.954;2023-07-09T00:29:59;101021.88;;;17.38;61.84
79645;BME280;69117;47.148;18.954;2023-07-09T00:33:01;101023.41;;;17.32;61.91
79645;BME280;69117;47.148;18.954;2023-07-09T00:36:10;101027.72;;;17.33;61.89
79645;BME280;69117;47.148;18.954;2023-07-09T00:39:17;101027.25;;;17.30;62.01
79645;BME280;69117;47.148;18.954;2023-07-09T00:42:21;101029.41;;;17.34;61.83
79645;BME280;69117;47.148;18.954;2023-07-09T00:45:25;101026.59;;;17.28;61.92
79645;BME280;69117;47.148;18.954;2023-07-09T00:48:27;101028.41;;;17.35;62.07
79645;BME280;69117;47.148;18.954;2023-07-09T00:51:36;101018.53;;;17.44;61.99
79645;BME280;69117;47.148;18.954;2023-07-09T00:54:44;101027.34;;;17.45;62.13
79645;BME280;69117;47.148;18.954;2023-07-09T00:57:49;101021.34;;;17.43;62.27
79645;BME280;69117;47.148;18.954;2023-07-09T01:01:03;101028.41;;;17.35;62.23
79645;BME280;69117;47.148;18.954;2023-07-09T01:04:08;101022.94;;;17.21;62.30
79645;BME280;69117;47.148;18.954;2023-07-09T01:07:11;101014.44;;;17.09;62.24
79645;BME280;69117;47.148;18.954;2023-07-09T01:10:15;101016.28;;;17.08;62.40
79645;BME280;69117;47.148;18.954;2023-07-09T01:13:18;101006.63;;;17.07;62.52
79645;BME280;69117;47.148;18.954;2023-07-09T01:16:24;101024.63;;;17.13;62.54
79645;BME280;69117;47.148;18.954;2023-07-09T01:19:29;101026.47;;;17.05;62.48
79645;BME280;69117;47.148;18.954;2023-07-09T01:22:31;101016.81;;;16.96;62.38
79645;BME280;69117;47.148;18.954;2023-07-09T01:25:34;101030.66;;;16.91;62.43
79645;BME280;69117;47.148;18.954;2023-07-09T01:28:37;101026.00;;;16.68;62.28
79645;BME280;69117;47.148;18.954;2023-07-09T01:31:38;101023.66;;;16.57;62.29
79645;BME280;69117;47.148;18.954;2023-07-09T01:34:40;101032.16;;;16.53;62.45
79645;BME280;69117;47.148;18.954;2023-07-09T01:37:42;101023.81;;;16.39;62.39
79645;BME280;69117;47.148;18.954;2023-07-09T01:40:45;101025.63;;;16.31;62.19
79645;BME280;69117;47.148;18.954;2023-07-09T01:43:47;101030.13;;;16.14;62.38
79645;BME280;69117;47.148;18.954;2023-07-09T01:46:49;101036.78;;;16.18;62.29
79645;BME280;69117;47.148;18.954;2023-07-09T01:49:52;101042.81;;;16.20;62.37
79645;BME280;69117;47.148;18.954;2023-07-09T01:52:59;101033.81;;;16.13;62.53
79645;BME280;69117;47.148;18.954;2023-07-09T01:56:01;101036.47;;;16.13;62.52
79645;BME280;69117;47.148;18.954;2023-07-09T01:59:03;101030.28;;;16.04;62.56
79645;BME280;69117;47.148;18.954;2023-07-09T02:02:04;101040.94;;;16.04;62.44
79645;BME280;69117;47.148;18.954;2023-07-09T02:05:06;101040.91;;;15.96;62.47
79645;BME280;69117;47.148;18.954;2023-07-09T02:08:08;101042.25;;;15.92;62.49
79645;BME280;69117;47.148;18.954;2023-07-09T02:11:10;101039.03;;;15.88;62.47
79645;BME280;69117;47.148;18.954;2023-07-09T02:14:11;101043.72;;;15.86;62.48
79645;BME280;69117;47.148;18.954;2023-07-09T02:17:14;101056.22;;;15.86;62.29
79645;BME280;69117;47.148;18.954;2023-07-09T02:20:16;101054.19;;;15.88;62.60
79645;BME280;69117;47.148;18.954;2023-07-09T02:23:17;101045.56;;;15.86;62.75
79645;BME280;69117;47.148;18.954;2023-07-09T02:26:19;101055.72;;;15.90;62.94
79645;BME280;69117;47.148;18.954;2023-07-09T02:29:22;101052.88;;;15.84;63.28
79645;BME280;69117;47.148;18.954;2023-07-09T02:32:26;101053.16;;;15.72;63.43
79645;BME280;69117;47.148;18.954;2023-07-09T02:35:28;101053.06;;;15.64;63.89
79645;BME280;69117;47.148;18.954;2023-07-09T02:38:29;101051.38;;;15.55;63.77
79645;BME280;69117;47.148;18.954;2023-07-09T02:41:31;101058.38;;;15.56;63.88
79645;BME280;69117;47.148;18.954;2023-07-09T02:44:32;101055.16;;;15.70;64.05
79645;BME280;69117;47.148;18.954;2023-07-09T02:47:34;101058.53;;;15.80;64.11
79645;BME280;69117;47.148;18.954;2023-07-09T02:50:36;101065.03;;;15.94;63.90
79645;BME280;69117;47.148;18.954;2023-07-09T02:53:37;101061.69;;;15.84;63.73
79645;BME280;69117;47.148;18.954;2023-07-09T02:56:39;101071.84;;;15.80;63.93
79645;BME280;69117;47.148;18.954;2023-07-09T02:59:41;101067.84;;;15.76;64.02
79645;BME280;69117;47.148;18.954;2023-07-09T03:02:42;101068.16;;;15.82;64.71
79645;BME280;69117;47.148;18.954;2023-07-09T03:05:45;101062.06;;;15.89;72.14
79645;BME280;69117;47.148;18.954;2023-07-09T03:08:47;101071.88;;;15.97;72.47
79645;BME280;69117;47.148;18.954;2023-07-09T03:11:49;101060.56;;;15.95;72.67
79645;BME280;69117;47.148;18.954;2023-07-09T03:14:51;101079.22;;;16.03;72.77
79645;BME280;69117;47.148;18.954;2023-07-09T03:17:52;101075.91;;;16.01;72.69
79645;BME280;69117;47.148;18.954;2023-07-09T03:20:54;101078.72;;;15.99;72.72
79645;BME280;69117;47.148;18.954;2023-07-09T03:23:56;101073.72;;;15.96;72.69
79645;BME280;69117;47.148;18.954;2023-07-09T03:26:58;101080.88;;;15.96;72.69
79645;BME280;69117;47.148;18.954;2023-07-09T03:30:00;101072.38;;;15.92;72.61
79645;BME280;69117;47.148;18.954;2023-07-09T03:33:02;101081.03;;;15.94;72.66
79645;BME280;69117;47.148;18.954;2023-07-09T03:36:05;101079.22;;;15.95;72.69
79645;BME280;69117;47.148;18.954;2023-07-09T03:39:07;101086.69;;;15.91;72.73
79645;BME280;69117;47.148;18.954;2023-07-09T03:42:09;101082.38;;;15.90;72.68
79645;BME280;69117;47.148;18.954;2023-07-09T03:45:13;101084.72;;;15.93;72.45
79645;BME280;69117;47.148;18.954;2023-07-09T03:48:16;101079.06;;;15.96;72.63
79645;BME280;69117;47.148;18.954;2023-07-09T03:51:18;101088.41;;;16.09;72.58
79645;BME280;69117;47.148;18.954;2023-07-09T03:54:19;101086.31;;;16.29;72.72
79645;BME280;69117;47.148;18.954;2023-07-09T03:57:21;101080.03;;;16.46;73.07
79645;BME280;69117;47.148;18.954;2023-07-09T04:00:23;101089.03;;;16.53;72.97
79645;BME280;69117;47.148;18.954;2023-07-09T04:03:26;101080.50;;;16.58;73.00
79645;BME280;69117;47.148;18.954;2023-07-09T04:06:27;101097.75;;;16.80;73.14
79645;BME280;69117;47.148;18.954;2023-07-09T04:09:29;101093.59;;;16.85;73.17
79645;BME280;69117;47.148;18.954;2023-07-09T04:12:31;101087.56;;;16.83;73.12
79645;BME280;69117;47.148;18.954;2023-07-09T04:15:33;101092.41;;;16.80;73.17
79645;BME280;69117;47.148;18.954;2023-07-09T04:18:34;101094.75;;;16.83;73.15
79645;BME280;69117;47.148;18.954;2023-07-09T04:21:37;101093.25;;;16.88;73.09
79645;BME280;69117;47.148;18.954;2023-07-09T04:24:39;101095.72;;;16.90;73.10
79645;BME280;69117;47.148;18.954;2023-07-09T04:27:41;101096.91;;;16.96;73.06
79645;BME280;69117;47.148;18.954;2023-07-09T04:30:49;101092.56;;;16.94;73.06
79645;BME280;69117;47.148;18.954;2023-07-09T04:33:51;101095.56;;;17.00;73.03
79645;BME280;69117;47.148;18.954;2023-07-09T04:36:54;101096.19;;;17.18;73.02
79645;BME280;69117;47.148;18.954;2023-07-09T04:39:55;101091.53;;;17.28;73.10
79645;BME280;69117;47.148;18.954;2023-07-09T04:42:57;101089.50;;;17.38;73.06
79645;BME280;69117;47.148;18.954;2023-07-09T04:45:59;101094.00;;;17.46;73.08
79645;BME280;69117;47.148;18.954;2023-07-09T04:49:01;101092.06;;;17.79;73.06
79645;BME280;69117;47.148;18.954;2023-07-09T04:52:03;101101.47;;;18.06;73.07
79645;BME280;69117;47.148;18.954;2023-07-09T04:55:05;101103.38;;;18.21;72.65
79645;BME280;69117;47.148;18.954;2023-07-09T04:58:09;101112.47;;;18.43;72.66
79645;BME280;69117;47.148;18.954;2023-07-09T05:01:10;101106.16;;;18.59;72.45
79645;BME280;69117;47.148;18.954;2023-07-09T05:04:12;101093.22;;;18.70;72.35
79645;BME280;69117;47.148;18.954;2023-07-09T05:07:14;101100.66;;;18.83;72.18
79645;BME280;69117;47.148;18.954;2023-07-09T05:10:16;101109.47;;;18.92;71.95
79645;BME280;69117;47.148;18.954;2023-07-09T05:13:18;101103.94;;;19.08;72.04
79645;BME280;69117;47.148;18.954;2023-07-09T05:16:20;101105.16;;;19.20;72.16
79645;BME280;69117;47.148;18.954;2023-07-09T05:19:22;101113.06;;;19.37;71.61
79645;BME280;69117;47.148;18.954;2023-07-09T05:22:23;101096.25;;;19.58;71.21
79645;BME280;69117;47.148;18.954;2023-07-09T05:25:25;101112.09;;;19.67;71.39
79645;BME280;69117;47.148;18.954;2023-07-09T05:28:33;101110.50;;;19.88;71.10
79645;BME280;69117;47.148;18.954;2023-07-09T05:31:34;101115.94;;;20.09;71.19
79645;BME280;69117;47.148;18.954;2023-07-09T05:34:37;101116.97;;;20.30;71.23
79645;BME280;69117;47.148;18.954;2023-07-09T05:37:39;101120.75;;;20.35;70.97
79645;BME280;69117;47.148;18.954;2023-07-09T05:40:42;101112.75;;;20.57;70.15
79645;BME280;69117;47.148;18.954;2023-07-09T05:43:44;101114.75;;;20.70;69.86
79645;BME280;69117;47.148;18.954;2023-07-09T05:46:45;101125.28;;;20.93;69.89
79645;BME280;69117;47.148;18.954;2023-07-09T05:49:47;101126.03;;;21.08;69.82
79645;BME280;69117;47.148;18.954;2023-07-09T05:52:51;101130.13;;;21.32;69.71
79645;BME280;69117;47.148;18.954;2023-07-09T05:55:54;101128.09;;;21.62;69.66
79645;BME280;69117;47.148;18.954;2023-07-09T05:58:56;101133.03;;;21.59;66.58
79645;BME280;69117;47.148;18.954;2023-07-09T06:01:58;101135.97;;;21.64;67.63
79645;BME280;69117;47.148;18.954;2023-07-09T06:05:02;101124.06;;;21.86;68.47
79645;BME280;69117;47.148;18.954;2023-07-09T06:08:04;101128.53;;;22.14;68.12
79645;BME280;69117;47.148;18.954;2023-07-09T06:11:06;101116.66;;;22.43;67.84
79645;BME280;69117;47.148;18.954;2023-07-09T06:14:08;101116.47;;;22.51;64.78
79645;BME280;69117;47.148;18.954;2023-07-09T06:17:10;101127.72;;;22.81;68.45
79645;BME280;69117;47.148;18.954;2023-07-09T06:20:12;101131.03;;;23.17;90.15
79645;BME280;69117;47.148;18.954;2023-07-09T06:23:14;101135.00;;;23.27;84.41
79645;BME280;69117;47.148;18.954;2023-07-09T06:26:16;101124.16;;;23.47;83.99
79645;BME280;69117;47.148;18.954;2023-07-09T06:29:18;101117.72;;;23.55;81.06
79645;BME280;69117;47.148;18.954;2023-07-09T06:32:19;101128.31;;;23.70;82.63
79645;BME280;69117;47.148;18.954;2023-07-09T06:35:21;101130.09;;;23.89;86.83
79645;BME280;69117;47.148;18.954;2023-07-09T06:38:23;101119.47;;;24.01;84.00
79645;BME280;69117;47.148;18.954;2023-07-09T06:41:24;101124.97;;;24.19;82.80
79645;BME280;69117;47.148;18.954;2023-07-09T06:44:26;101120.97;;;24.29;82.04
79645;BME280;69117;47.148;18.954;2023-07-09T06:47:28;101132.09;;;24.52;83.17
79645;BME280;69117;47.148;18.954;2023-07-09T06:50:33;101130.94;;;24.73;81.68
79645;BME280;69117;47.148;18.954;2023-07-09T06:53:35;101130.13;;;24.98;80.92
79645;BME280;69117;47.148;18.954;2023-07-09T06:56:37;101127.28;;;25.18;79.99
79645;BME280;69117;47.148;18.954;2023-07-09T06:59:39;101134.22;;;25.32;74.40
79645;BME280;69117;47.148;18.954;2023-07-09T07:02:41;101133.94;;;25.40;69.91
79645;BME280;69117;47.148;18.954;2023-07-09T07:05:47;101136.88;;;25.57;68.60
79645;BME280;69117;47.148;18.954;2023-07-09T07:08:50;101124.50;;;25.86;67.15
79645;BME280;69117;47.148;18.954;2023-07-09T07:11:52;101125.44;;;26.10;64.27
79645;BME280;69117;47.148;18.954;2023-07-09T07:14:55;101118.19;;;26.22;61.71
79645;BME280;69117;47.148;18.954;2023-07-09T07:17:57;101130.28;;;26.38;57.78
79645;BME280;69117;47.148;18.954;2023-07-09T07:20:59;101136.31;;;26.70;58.54
79645;BME280;69117;47.148;18.954;2023-07-09T07:24:01;101128.50;;;26.62;57.04
79645;BME280;69117;47.148;18.954;2023-07-09T07:27:03;101134.22;;;26.84;54.81
79645;BME280;69117;47.148;18.954;2023-07-09T07:30:06;101131.53;;;27.08;52.73
79645;BME280;69117;47.148;18.954;2023-07-09T07:33:12;101128.00;;;27.07;51.33
79645;BME280;69117;47.148;18.954;2023-07-09T07:36:15;101115.88;;;27.45;50.69
79645;BME280;69117;47.148;18.954;2023-07-09T07:39:19;101136.84;;;27.61;52.84
79645;BME280;69117;47.148;18.954;2023-07-09T07:42:21;101128.44;;;27.86;49.93
79645;BME280;69117;47.148;18.954;2023-07-09T07:45:23;101122.28;;;28.03;52.84
79645;BME280;69117;47.148;18.954;2023-07-09T07:48:24;101133.03;;;27.98;51.18
79645;BME280;69117;47.148;18.954;2023-07-09T07:51:26;101123.66;;;28.17;51.98
79645;BME280;69117;47.148;18.954;2023-07-09T07:54:29;101135.13;;;28.48;52.25
79645;BME280;69117;47.148;18.954;2023-07-09T07:57:33;101133.44;;;28.47;51.72
79645;BME280;69117;47.148;18.954;2023-07-09T08:00:34;101128.50;;;28.32;46.90
79645;BME280;69117;47.148;18.954;2023-07-09T08:03:38;101121.03;;;28.51;49.51
79645;BME280;69117;47.148;18.954;2023-07-09T08:06:40;101123.25;;;28.54;46.39
79645;BME280;69117;47.148;18.954;2023-07-09T08:09:41;101124.75;;;28.79;46.88
79645;BME280;69117;47.148;18.954;2023-07-09T08:12:43;101116.34;;;28.97;46.01
79645;BME280;69117;47.148;18.954;2023-07-09T08:15:46;101115.31;;;29.15;49.82
79645;BME280;69117;47.148;18.954;2023-07-09T08:18:48;101103.44;;;29.43;44.95
79645;BME280;69117;47.148;18.954;2023-07-09T08:21:50;101114.41;;;29.48;44.30
79645;BME280;69117;47.148;18.954;2023-07-09T08:24:51;101102.31;;;29.39;43.46
79645;BME280;69117;47.148;18.954;2023-07-09T08:27:53;101109.59;;;29.55;44.18
79645;BME280;69117;47.148;18.954;2023-07-09T08:30:55;101105.47;;;29.70;43.26
79645;BME280;69117;47.148;18.954;2023-07-09T08:33:57;101105.69;;;29.68;45.08
79645;BME280;69117;47.148;18.954;2023-07-09T08:36:59;101101.03;;;29.63;43.01
79645;BME280;69117;47.148;18.954;2023-07-09T08:40:01;101107.03;;;29.87;41.18
79645;BME280;69117;47.148;18.954;2023-07-09T08:43:10;101110.19;;;30.01;42.22
79645;BME280;69117;47.148;18.954;2023-07-09T08:49:39;101103.19;;;30.10;43.42
79645;BME280;69117;47.148;18.954;2023-07-09T08:52:44;101105.81;;;30.00;38.70
79645;BME280;69117;47.148;18.954;2023-07-09T08:55:50;101104.84;;;30.33;39.51
79645;BME280;69117;47.148;18.954;2023-07-09T08:58:55;101103.00;;;30.17;37.23
79645;BME280;69117;47.148;18.954;2023-07-09T09:01:58;101102.47;;;29.93;36.87
79645;BME280;69117;47.148;18.954;2023-07-09T09:05:03;101103.97;;;30.06;38.83
79645;BME280;69117;47.148;18.954;2023-07-09T09:11:44;101101.44;;;30.48;35.63
79645;BME280;69117;47.148;18.954;2023-07-09T09:15:02;101087.25;;;30.78;35.67
79645;BME280;69117;47.148;18.954;2023-07-09T09:21:34;101090.88;;;30.89;35.69
79645;BME280;69117;47.148;18.954;2023-07-09T09:24:41;101099.16;;;30.99;37.29
79645;BME280;69117;47.148;18.954;2023-07-09T09:27:45;101102.88;;;31.31;36.14
79645;BME280;69117;47.148;18.954;2023-07-09T09:30:49;101100.47;;;31.34;34.18
79645;BME280;69117;47.148;18.954;2023-07-09T09:33:51;101094.41;;;31.27;36.14
79645;BME280;69117;47.148;18.954;2023-07-09T09:36:53;101094.09;;;30.81;31.26
79645;BME280;69117;47.148;18.954;2023-07-09T09:39:54;101096.19;;;30.74;34.11
79645;BME280;69117;47.148;18.954;2023-07-09T09:43:20;101099.00;;;31.21;34.26
79645;BME280;69117;47.148;18.954;2023-07-09T09:46:24;101097.28;;;31.53;34.17
79645;BME280;69117;47.148;18.954;2023-07-09T09:49:26;101099.41;;;32.03;35.69
79645;BME280;69117;47.148;18.954;2023-07-09T09:52:31;101094.81;;;32.39;32.59
79645;BME280;69117;47.148;18.954;2023-07-09T09:55:34;101099.44;;;32.19;31.93
79645;BME280;69117;47.148;18.954;2023-07-09T09:58:40;101097.22;;;32.00;33.74
79645;BME280;69117;47.148;18.954;2023-07-09T10:01:41;101100.53;;;32.12;29.67
79645;BME280;69117;47.148;18.954;2023-07-09T10:04:43;101086.91;;;32.43;28.03
79645;BME280;69117;47.148;18.954;2023-07-09T10:08:02;101082.03;;;32.66;31.85
79645;BME280;69117;47.148;18.954;2023-07-09T10:11:18;101085.00;;;32.79;32.68
79645;BME280;69117;47.148;18.954;2023-07-09T10:14:29;101084.16;;;32.89;30.73
79645;BME280;69117;47.148;18.954;2023-07-09T10:20:55;101078.44;;;33.11;30.45
79645;BME280;69117;47.148;18.954;2023-07-09T10:31:26;101072.69;;;32.87;28.20
79645;BME280;69117;47.148;18.954;2023-07-09T10:37:55;101080.28;;;33.31;26.12
79645;BME280;69117;47.148;18.954;2023-07-09T10:41:02;101077.25;;;33.33;27.85
79645;BME280;69117;47.148;18.954;2023-07-09T10:44:32;101071.44;;;34.09;27.69
79645;BME280;69117;47.148;18.954;2023-07-09T10:47:41;101069.50;;;34.15;28.16
79645;BME280;69117;47.148;18.954;2023-07-09T10:50:51;101075.31;;;34.08;28.03
79645;BME280;69117;47.148;18.954;2023-07-09T10:57:47;101061.16;;;34.30;24.92
79645;BME280;69117;47.148;18.954;2023-07-09T11:00:50;101069.75;;;34.87;28.62
79645;BME280;69117;47.148;18.954;2023-07-09T11:03:56;101065.72;;;34.40;24.51
79645;BME280;69117;47.148;18.954;2023-07-09T11:07:07;101063.16;;;34.59;23.59
79645;BME280;69117;47.148;18.954;2023-07-09T11:16:53;101052.41;;;33.79;24.67
79645;BME280;69117;47.148;18.954;2023-07-09T11:19:59;101050.50;;;34.24;25.07
79645;BME280;69117;47.148;18.954;2023-07-09T11:23:15;101041.31;;;34.73;28.35
79645;BME280;69117;47.148;18.954;2023-07-09T11:29:23;101041.00;;;35.51;26.43
79645;BME280;69117;47.148;18.954;2023-07-09T11:32:26;101043.66;;;35.38;24.21
79645;BME280;69117;47.148;18.954;2023-07-09T11:35:42;101047.72;;;35.40;23.03
79645;BME280;69117;47.148;18.954;2023-07-09T11:38:47;101038.28;;;35.70;23.30
79645;BME280;69117;47.148;18.954;2023-07-09T11:41:48;101028.88;;;35.95;24.64
79645;BME280;69117;47.148;18.954;2023-07-09T11:44:57;101032.13;;;35.97;25.14
79645;BME280;69117;47.148;18.954;2023-07-09T11:48:25;101029.75;;;35.91;23.24
79645;BME280;69117;47.148;18.954;2023-07-09T11:51:38;101032.50;;;35.72;25.63
79645;BME280;69117;47.148;18.954;2023-07-09T11:54:41;101022.47;;;35.81;24.24
79645;BME280;69117;47.148;18.954;2023-07-09T11:57:47;101022.91;;;36.26;24.38
79645;BME280;69117;47.148;18.954;2023-07-09T12:00:55;101016.00;;;36.89;23.82
79645;BME280;69117;47.148;18.954;2023-07-09T12:03:58;101018.22;;;36.59;21.58
79645;BME280;69117;47.148;18.954;2023-07-09T12:07:01;101018.16;;;37.33;21.92
79645;BME280;69117;47.148;18.954;2023-07-09T12:10:23;101006.53;;;37.09;22.21
79645;BME280;69117;47.148;18.954;2023-07-09T12:13:25;101012.81;;;36.82;23.49
79645;BME280;69117;47.148;18.954;2023-07-09T12:16:29;101004.91;;;35.96;23.09
79645;BME280;69117;47.148;18.954;2023-07-09T12:19:32;101006.72;;;34.42;23.45
79645;BME280;69117;47.148;18.954;2023-07-09T12:22:33;101007.41;;;34.58;27.30
79645;BME280;69117;47.148;18.954;2023-07-09T12:25:35;101001.97;;;36.58;24.36
79645;BME280;69117;47.148;18.954;2023-07-09T12:28:37;100989.09;;;37.13;22.53
79645;BME280;69117;47.148;18.954;2023-07-09T12:31:39;101000.84;;;35.74;24.34
79645;BME280;69117;47.148;18.954;2023-07-09T12:34:41;100994.16;;;36.32;25.67
79645;BME280;69117;47.148;18.954;2023-07-09T12:37:44;100982.41;;;36.59;22.15
79645;BME280;69117;47.148;18.954;2023-07-09T12:40:48;100985.19;;;36.87;23.83
79645;BME280;69117;47.148;18.954;2023-07-09T12:43:54;100976.72;;;37.11;23.70
79645;BME280;69117;47.148;18.954;2023-07-09T12:46:56;100976.31;;;37.31;22.19
79645;BME280;69117;47.148;18.954;2023-07-09T12:50:17;100979.50;;;37.11;22.77
79645;BME280;69117;47.148;18.954;2023-07-09T12:53:20;100967.22;;;37.67;20.65
79645;BME280;69117;47.148;18.954;2023-07-09T12:56:27;100967.78;;;38.45;22.47
79645;BME280;69117;47.148;18.954;2023-07-09T12:59:39;100964.16;;;36.63;23.81
79645;BME280;69117;47.148;18.954;2023-07-09T13:02:41;100965.53;;;34.42;26.75
79645;BME280;69117;47.148;18.954;2023-07-09T13:09:53;100951.06;;;37.74;21.75
79645;BME280;69117;47.148;18.954;2023-07-09T13:13:00;100950.28;;;37.60;21.43
79645;BME280;69117;47.148;18.954;2023-07-09T13:16:02;100960.03;;;37.80;22.23
79645;BME280;69117;47.148;18.954;2023-07-09T13:19:04;100953.56;;;37.62;22.99
79645;BME280;69117;47.148;18.954;2023-07-09T13:22:07;100941.91;;;36.87;20.89
79645;BME280;69117;47.148;18.954;2023-07-09T13:25:11;100953.03;;;37.24;21.36
79645;BME280;69117;47.148;18.954;2023-07-09T13:28:22;100946.59;;;37.14;22.00
79645;BME280;69117;47.148;18.954;2023-07-09T13:31:27;100944.63;;;38.55;20.16
79645;BME280;69117;47.148;18.954;2023-07-09T13:34:30;100935.41;;;38.68;21.17
79645;BME280;69117;47.148;18.954;2023-07-09T13:37:36;100942.69;;;39.13;21.70
79645;BME280;69117;47.148;18.954;2023-07-09T13:40:38;100945.16;;;37.67;20.20
79645;BME280;69117;47.148;18.954;2023-07-09T13:43:42;100941.72;;;38.07;23.02
79645;BME280;69117;47.148;18.954;2023-07-09T13:46:45;100939.31;;;38.67;20.70
79645;BME280;69117;47.148;18.954;2023-07-09T13:49:48;100926.63;;;38.35;22.02
79645;BME280;69117;47.148;18.954;2023-07-09T13:52:49;100936.09;;;38.43;23.22
79645;BME280;69117;47.148;18.954;2023-07-09T13:55:52;100932.31;;;39.36;21.32
79645;BME280;69117;47.148;18.954;2023-07-09T13:58:54;100936.41;;;39.56;20.51
79645;BME280;69117;47.148;18.954;2023-07-09T14:01:58;100934.72;;;39.11;21.76
79645;BME280;69117;47.148;18.954;2023-07-09T14:05:03;100933.75;;;38.36;22.61
79645;BME280;69117;47.148;18.954;2023-07-09T14:08:07;100927.56;;;39.19;20.66
79645;BME280;69117;47.148;18.954;2023-07-09T14:11:15;100929.25;;;39.37;18.99
79645;BME280;69117;47.148;18.954;2023-07-09T14:14:24;100921.34;;;40.09;21.72
79645;BME280;69117;47.148;18.954;2023-07-09T14:17:27;100925.53;;;38.45;22.88
79645;BME280;69117;47.148;18.954;2023-07-09T14:20:29;100925.63;;;39.46;21.50
79645;BME280;69117;47.148;18.954;2023-07-09T14:23:30;100923.59;;;38.85;19.00
79645;BME280;69117;47.148;18.954;2023-07-09T14:26:32;100915.56;;;38.75;22.31
79645;BME280;69117;47.148;18.954;2023-07-09T14:29:34;100908.69;;;39.91;19.71
79645;BME280;69117;47.148;18.954;2023-07-09T14:32:37;100916.53;;;40.44;21.76
79645;BME280;69117;47.148;18.954;2023-07-09T14:35:40;100929.88;;;39.78;21.23
79645;BME280;69117;47.148;18.954;2023-07-09T14:38:42;100929.19;;;39.11;21.34
79645;BME280;69117;47.148;18.954;2023-07-09T14:41:43;100929.56;;;38.79;22.67
79645;BME280;69117;47.148;18.954;2023-07-09T14:44:45;100923.63;;;38.94;23.22
79645;BME280;69117;47.148;18.954;2023-07-09T14:47:48;100906.28;;;36.50;24.30
79645;BME280;69117;47.148;18.954;2023-07-09T14:50:50;100908.44;;;36.66;24.67
79645;BME280;69117;47.148;18.954;2023-07-09T14:53:51;100912.63;;;38.00;24.04
79645;BME280;69117;47.148;18.954;2023-07-09T14:56:54;100910.22;;;35.07;23.72
79645;BME280;69117;47.148;18.954;2023-07-09T14:59:57;100906.06;;;35.48;22.50
79645;BME280;69117;47.148;18.954;2023-07-09T15:03:01;100911.31;;;37.03;23.04
79645;BME280;69117;47.148;18.954;2023-07-09T15:06:03;100897.88;;;37.24;21.03
79645;BME280;69117;47.148;18.954;2023-07-09T15:09:05;100902.53;;;38.27;21.28
79645;BME280;69117;47.148;18.954;2023-07-09T15:12:19;100899.56;;;37.11;19.54
79645;BME280;69117;47.148;18.954;2023-07-09T15:15:29;100903.09;;;36.98;22.05
79645;BME280;69117;47.148;18.954;2023-07-09T15:18:32;100891.72;;;35.70;22.89
79645;BME280;69117;47.148;18.954;2023-07-09T15:21:36;100895.19;;;34.76;25.36
79645;BME280;69117;47.148;18.954;2023-07-09T15:24:38;100896.97;;;34.13;23.59
79645;BME280;69117;47.148;18.954;2023-07-09T15:27:39;100893.94;;;35.30;25.73
79645;BME280;69117;47.148;18.954;2023-07-09T15:30:42;100890.97;;;36.99;22.71
79645;BME280;69117;47.148;18.954;2023-07-09T15:33:44;100886.31;;;37.35;23.67
79645;BME280;69117;47.148;18.954;2023-07-09T15:36:49;100881.25;;;35.72;23.49
79645;BME280;69117;47.148;18.954;2023-07-09T15:39:51;100892.09;;;34.00;30.85
79645;BME280;69117;47.148;18.954;2023-07-09T15:42:58;100888.34;;;35.73;26.34
79645;BME280;69117;47.148;18.954;2023-07-09T15:45:59;100883.16;;;37.65;20.79
79645;BME280;69117;47.148;18.954;2023-07-09T15:49:03;100884.19;;;38.62;21.55
79645;BME280;69117;47.148;18.954;2023-07-09T15:52:07;100888.19;;;38.47;24.77
79645;BME280;69117;47.148;18.954;2023-07-09T15:55:18;100879.25;;;38.99;23.93
79645;BME280;69117;47.148;18.954;2023-07-09T15:58:26;100876.38;;;38.24;21.20
79645;BME280;69117;47.148;18.954;2023-07-09T16:01:29;100886.84;;;38.05;20.49
79645;BME280;69117;47.148;18.954;2023-07-09T16:04:30;100881.63;;;36.86;23.54
79645;BME280;69117;47.148;18.954;2023-07-09T16:07:32;100885.72;;;34.87;26.75
79645;BME280;69117;47.148;18.954;2023-07-09T16:10:34;100875.06;;;36.82;22.32
79645;BME280;69117;47.148;18.954;2023-07-09T16:13:36;100885.59;;;37.07;23.94
79645;BME280;69117;47.148;18.954;2023-07-09T16:16:37;100874.13;;;37.14;23.95
79645;BME280;69117;47.148;18.954;2023-07-09T16:19:39;100874.91;;;36.64;25.77
79645;BME280;69117;47.148;18.954;2023-07-09T16:22:42;100876.19;;;37.31;24.74
79645;BME280;69117;47.148;18.954;2023-07-09T16:25:46;100874.69;;;37.61;23.13
79645;BME280;69117;47.148;18.954;2023-07-09T16:28:51;100883.72;;;37.75;22.33
79645;BME280;69117;47.148;18.954;2023-07-09T16:31:54;100877.13;;;37.04;26.62